sensor_id;sensor_type;location;lat;lon;timestamp;P1;durP1;ratioP1;P2;durP2;ratioP2
66739;SDS011;53653;52.188;8.602;2022-10-04T00:01:44;16.80;;;7.15;;
66739;SDS011;53653;52.188;8.602;2022-10-04T00:04:15;15.77;;;7.57;;
66739;SDS011;53653;52.188;8.602;2022-10-04T00:06:46;16.37;;;7.33;;
66739;SDS011;53653;52.188;8.602;2022-10-04T00:09:20;22.02;;;7.55;;
66739;SDS011;53653;52.188;8.602;2022-10-04T00:11:48;16.02;;;6.75;;
66739;SDS011;53653;52.188;8.602;2022-10-04T00:14:21;16.08;;;6.95;;
66739;SDS011;53653;52.188;8.602;2022-10-04T00:16:52;16.45;;;6.50;;
66739;SDS011;53653;52.188;8.602;2022-10-04T00:22:26;12.88;;;6.55;;
66739;SDS011;53653;52.188;8.602;2022-10-04T00:24:36;16.27;;;6.43;;
66739;SDS011;53653;52.188;8.602;2022-10-04T00:27:23;20.30;;;6.95;;
66739;SDS011;53653;52.188;8.602;2022-10-04T00:34:58;16.75;;;7.13;;
66739;SDS011;53653;52.188;8.602;2022-10-04T00:37:25;15.03;;;6.97;;
66739;SDS011;53653;52.188;8.602;2022-10-04T00:42:34;15.13;;;6.88;;
66739;SDS011;53653;52.188;8.602;2022-10-04T00:56:43;16.95;;;7.78;;
66739;SDS011;53653;52.188;8.602;2022-10-04T01:07:26;14.30;;;7.03;;
66739;SDS011;53653;52.188;8.602;2022-10-04T01:10:00;17.25;;;7.80;;
66739;SDS011;53653;52.188;8.602;2022-10-04T01:12:32;17.98;;;7.03;;
66739;SDS011;53653;52.188;8.602;2022-10-04T01:15:09;14.73;;;6.63;;
66739;SDS011;53653;52.188;8.602;2022-10-04T01:17:37;15.40;;;6.60;;
66739;SDS011;53653;52.188;8.602;2022-10-04T01:20:02;17.33;;;7.17;;
66739;SDS011;53653;52.188;8.602;2022-10-04T01:24:54;13.57;;;7.10;;
66739;SDS011;53653;52.188;8.602;2022-10-04T01:27:40;16.85;;;7.40;;
66739;SDS011;53653;52.188;8.602;2022-10-04T01:30:09;18.27;;;7.70;;
66739;SDS011;53653;52.188;8.602;2022-10-04T01:32:37;18.15;;;7.20;;
66739;SDS011;53653;52.188;8.602;2022-10-04T01:35:04;16.83;;;7.68;;
66739;SDS011;53653;52.188;8.602;2022-10-04T01:37:31;16.67;;;7.13;;
66739;SDS011;53653;52.188;8.602;2022-10-04T01:39:57;17.00;;;6.97;;
66739;SDS011;53653;52.188;8.602;2022-10-04T01:42:28;17.30;;;7.43;;
66739;SDS011;53653;52.188;8.602;2022-10-04T01:45:07;17.27;;;7.10;;
66739;SDS011;53653;52.188;8.602;2022-10-04T01:52:57;14.63;;;7.15;;
66739;SDS011;53653;52.188;8.602;2022-10-04T01:55:34;19.43;;;7.40;;
66739;SDS011;53653;52.188;8.602;2022-10-04T01:58:12;16.88;;;8.18;;
66739;SDS011;53653;52.188;8.602;2022-10-04T02:00:46;14.77;;;7.10;;
66739;SDS011;53653;52.188;8.602;2022-10-04T02:03:19;15.35;;;6.68;;
66739;SDS011;53653;52.188;8.602;2022-10-04T02:05:59;17.65;;;6.78;;
66739;SDS011;53653;52.188;8.602;2022-10-04T02:08:31;20.63;;;6.60;;
66739;SDS011;53653;52.188;8.602;2022-10-04T02:11:00;14.88;;;6.85;;
66739;SDS011;53653;52.188;8.602;2022-10-04T02:13:32;13.27;;;7.10;;
66739;SDS011;53653;52.188;8.602;2022-10-04T02:16:02;16.88;;;7.38;;
66739;SDS011;53653;52.188;8.602;2022-10-04T02:18:32;19.35;;;7.03;;
66739;SDS011;53653;52.188;8.602;2022-10-04T02:21:04;16.33;;;7.07;;
66739;SDS011;53653;52.188;8.602;2022-10-04T02:23:31;14.57;;;7.10;;
66739;SDS011;53653;52.188;8.602;2022-10-04T02:26:03;17.52;;;7.30;;
66739;SDS011;53653;52.188;8.602;2022-10-04T02:28:30;14.10;;;6.95;;
66739;SDS011;53653;52.188;8.602;2022-10-04T02:30:57;16.55;;;6.68;;
66739;SDS011;53653;52.188;8.602;2022-10-04T02:33:43;15.93;;;7.33;;
66739;SDS011;53653;52.188;8.602;2022-10-04T02:36:11;17.27;;;7.22;;
66739;SDS011;53653;52.188;8.602;2022-10-04T02:44:16;17.00;;;8.05;;
66739;SDS011;53653;52.188;8.602;2022-10-04T02:46:57;15.77;;;7.03;;
66739;SDS011;53653;52.188;8.602;2022-10-04T02:49:35;17.55;;;6.90;;
66739;SDS011;53653;52.188;8.602;2022-10-04T02:57:22;15.75;;;6.45;;
66739;SDS011;53653;52.188;8.602;2022-10-04T02:59:48;19.80;;;7.43;;
66739;SDS011;53653;52.188;8.602;2022-10-04T03:04:48;20.73;;;7.93;;
66739;SDS011;53653;52.188;8.602;2022-10-04T03:07:15;14.35;;;7.35;;
66739;SDS011;53653;52.188;8.602;2022-10-04T03:09:40;17.20;;;7.23;;
66739;SDS011;53653;52.188;8.602;2022-10-04T03:12:06;15.25;;;7.30;;
66739;SDS011;53653;52.188;8.602;2022-10-04T03:14:36;15.07;;;7.10;;
66739;SDS011;53653;52.188;8.602;2022-10-04T03:17:03;17.13;;;7.17;;
66739;SDS011;53653;52.188;8.602;2022-10-04T03:19:30;14.02;;;7.35;;
66739;SDS011;53653;52.188;8.602;2022-10-04T03:22:00;13.63;;;6.72;;
66739;SDS011;53653;52.188;8.602;2022-10-04T03:24:42;13.65;;;7.38;;
66739;SDS011;53653;52.188;8.602;2022-10-04T03:27:30;18.42;;;7.53;;
66739;SDS011;53653;52.188;8.602;2022-10-04T03:30:00;16.00;;;7.47;;
66739;SDS011;53653;52.188;8.602;2022-10-04T03:32:26;18.25;;;7.40;;
66739;SDS011;53653;52.188;8.602;2022-10-04T03:34:58;18.42;;;7.75;;
66739;SDS011;53653;52.188;8.602;2022-10-04T03:37:26;14.68;;;7.65;;
66739;SDS011;53653;52.188;8.602;2022-10-04T03:39:54;14.98;;;7.63;;
66739;SDS011;53653;52.188;8.602;2022-10-04T03:42:22;14.83;;;6.90;;
66739;SDS011;53653;52.188;8.602;2022-10-04T03:44:50;15.32;;;6.60;;
66739;SDS011;53653;52.188;8.602;2022-10-04T03:47:19;17.17;;;6.88;;
66739;SDS011;53653;52.188;8.602;2022-10-04T03:49:47;14.75;;;6.75;;
66739;SDS011;53653;52.188;8.602;2022-10-04T03:52:34;15.30;;;6.75;;
66739;SDS011;53653;52.188;8.602;2022-10-04T03:55:02;20.30;;;7.07;;
66739;SDS011;53653;52.188;8.602;2022-10-04T03:57:31;15.60;;;6.60;;
66739;SDS011;53653;52.188;8.602;2022-10-04T03:59:58;15.98;;;6.97;;
66739;SDS011;53653;52.188;8.602;2022-10-04T04:04:53;13.93;;;6.87;;
66739;SDS011;53653;52.188;8.602;2022-10-04T04:10:30;13.68;;;6.45;;
66739;SDS011;53653;52.188;8.602;2022-10-04T04:15:31;13.55;;;6.35;;
66739;SDS011;53653;52.188;8.602;2022-10-04T04:17:58;17.95;;;7.28;;
66739;SDS011;53653;52.188;8.602;2022-10-04T04:20:29;14.80;;;6.50;;
66739;SDS011;53653;52.188;8.602;2022-10-04T04:25:26;11.73;;;6.20;;
66739;SDS011;53653;52.188;8.602;2022-10-04T04:27:59;16.08;;;7.03;;
66739;SDS011;53653;52.188;8.602;2022-10-04T04:30:47;13.40;;;6.65;;
66739;SDS011;53653;52.188;8.602;2022-10-04T04:33:36;17.63;;;7.35;;
66739;SDS011;53653;52.188;8.602;2022-10-04T04:36:14;14.15;;;6.65;;
66739;SDS011;53653;52.188;8.602;2022-10-04T04:38:41;14.60;;;6.60;;
66739;SDS011;53653;52.188;8.602;2022-10-04T04:41:29;15.05;;;6.30;;
66739;SDS011;53653;52.188;8.602;2022-10-04T04:43:59;20.45;;;6.70;;
66739;SDS011;53653;52.188;8.602;2022-10-04T04:46:24;13.43;;;5.37;;
66739;SDS011;53653;52.188;8.602;2022-10-04T04:48:56;13.50;;;5.95;;
66739;SDS011;53653;52.188;8.602;2022-10-04T04:51:26;14.98;;;6.30;;
66739;SDS011;53653;52.188;8.602;2022-10-04T04:53:53;13.27;;;5.97;;
66739;SDS011;53653;52.188;8.602;2022-10-04T04:56:24;14.95;;;6.18;;
66739;SDS011;53653;52.188;8.602;2022-10-04T04:58:51;15.10;;;6.13;;
66739;SDS011;53653;52.188;8.602;2022-10-04T05:01:30;16.38;;;6.30;;
66739;SDS011;53653;52.188;8.602;2022-10-04T05:04:14;14.95;;;6.32;;
66739;SDS011;53653;52.188;8.602;2022-10-04T05:06:46;12.27;;;6.25;;
66739;SDS011;53653;52.188;8.602;2022-10-04T05:12:16;15.37;;;6.53;;
66739;SDS011;53653;52.188;8.602;2022-10-04T05:14:49;13.38;;;6.53;;
66739;SDS011;53653;52.188;8.602;2022-10-04T05:17:26;16.67;;;7.22;;
66739;SDS011;53653;52.188;8.602;2022-10-04T05:19:58;13.00;;;6.65;;
66739;SDS011;53653;52.188;8.602;2022-10-04T05:22:25;18.40;;;6.75;;
66739;SDS011;53653;52.188;8.602;2022-10-04T05:24:56;15.70;;;6.90;;
66739;SDS011;53653;52.188;8.602;2022-10-04T05:35:18;17.85;;;6.93;;
66739;SDS011;53653;52.188;8.602;2022-10-04T05:42:56;14.52;;;7.13;;
66739;SDS011;53653;52.188;8.602;2022-10-04T05:45:26;15.75;;;6.55;;
66739;SDS011;53653;52.188;8.602;2022-10-04T05:47:55;15.00;;;6.28;;
66739;SDS011;53653;52.188;8.602;2022-10-04T05:50:30;12.57;;;6.73;;
66739;SDS011;53653;52.188;8.602;2022-10-04T05:53:11;24.13;;;6.93;;
66739;SDS011;53653;52.188;8.602;2022-10-04T06:21:21;15.65;;;6.40;;
66739;SDS011;53653;52.188;8.602;2022-10-04T06:26:24;15.30;;;6.45;;
66739;SDS011;53653;52.188;8.602;2022-10-04T06:29:02;13.70;;;6.05;;
66739;SDS011;53653;52.188;8.602;2022-10-04T06:37:13;16.40;;;6.30;;
66739;SDS011;53653;52.188;8.602;2022-10-04T06:40:17;13.93;;;7.53;;
66739;SDS011;53653;52.188;8.602;2022-10-04T06:46:06;15.53;;;6.50;;
66739;SDS011;53653;52.188;8.602;2022-10-04T06:57:25;19.48;;;7.65;;
66739;SDS011;53653;52.188;8.602;2022-10-04T07:00:15;15.87;;;7.03;;
66739;SDS011;53653;52.188;8.602;2022-10-04T07:03:00;20.88;;;7.43;;
66739;SDS011;53653;52.188;8.602;2022-10-04T07:11:21;15.00;;;6.88;;
66739;SDS011;53653;52.188;8.602;2022-10-04T07:16:39;17.88;;;6.82;;
66739;SDS011;53653;52.188;8.602;2022-10-04T07:24:32;14.38;;;5.68;;
66739;SDS011;53653;52.188;8.602;2022-10-04T07:27:41;12.30;;;5.67;;
66739;SDS011;53653;52.188;8.602;2022-10-04T07:31:00;15.52;;;6.38;;
66739;SDS011;53653;52.188;8.602;2022-10-04T07:33:31;13.95;;;6.40;;
66739;SDS011;53653;52.188;8.602;2022-10-04T07:36:07;15.20;;;6.78;;
66739;SDS011;53653;52.188;8.602;2022-10-04T07:38:55;15.10;;;6.40;;
66739;SDS011;53653;52.188;8.602;2022-10-04T07:41:30;12.83;;;6.50;;
66739;SDS011;53653;52.188;8.602;2022-10-04T07:44:04;13.70;;;6.40;;
66739;SDS011;53653;52.188;8.602;2022-10-04T07:49:27;18.60;;;6.78;;
66739;SDS011;53653;52.188;8.602;2022-10-04T07:52:09;15.25;;;6.70;;
66739;SDS011;53653;52.188;8.602;2022-10-04T08:00:19;13.93;;;6.15;;
66739;SDS011;53653;52.188;8.602;2022-10-04T08:03:08;14.63;;;6.80;;
66739;SDS011;53653;52.188;8.602;2022-10-04T08:05:46;16.27;;;6.22;;
66739;SDS011;53653;52.188;8.602;2022-10-04T08:22:40;17.30;;;7.95;;
66739;SDS011;53653;52.188;8.602;2022-10-04T08:39:05;12.85;;;6.22;;
66739;SDS011;53653;52.188;8.602;2022-10-04T08:42:02;10.20;;;4.83;;
66739;SDS011;53653;52.188;8.602;2022-10-04T08:49:38;12.73;;;3.88;;
66739;SDS011;53653;52.188;8.602;2022-10-04T09:06:39;12.68;;;5.95;;
66739;SDS011;53653;52.188;8.602;2022-10-04T09:16:51;12.23;;;4.93;;
66739;SDS011;53653;52.188;8.602;2022-10-04T09:20:18;12.70;;;5.10;;
66739;SDS011;53653;52.188;8.602;2022-10-04T09:33:41;7.95;;;3.15;;
66739;SDS011;53653;52.188;8.602;2022-10-04T09:36:28;13.18;;;3.95;;
66739;SDS011;53653;52.188;8.602;2022-10-04T09:47:43;9.65;;;3.80;;
66739;SDS011;53653;52.188;8.602;2022-10-04T09:53:04;8.65;;;2.95;;
66739;SDS011;53653;52.188;8.602;2022-10-04T09:55:39;8.80;;;3.03;;
66739;SDS011;53653;52.188;8.602;2022-10-04T10:07:13;8.00;;;2.55;;
66739;SDS011;53653;52.188;8.602;2022-10-04T10:21:44;7.93;;;2.60;;
66739;SDS011;53653;52.188;8.602;2022-10-04T10:32:54;8.88;;;3.08;;
66739;SDS011;53653;52.188;8.602;2022-10-04T10:49:47;11.52;;;3.05;;
66739;SDS011;53653;52.188;8.602;2022-10-04T11:06:56;9.70;;;3.07;;
66739;SDS011;53653;52.188;8.602;2022-10-04T11:45:53;15.32;;;3.72;;
66739;SDS011;53653;52.188;8.602;2022-10-04T11:54:51;11.25;;;3.58;;
66739;SDS011;53653;52.188;8.602;2022-10-04T12:05:59;9.02;;;3.35;;
66739;SDS011;53653;52.188;8.602;2022-10-04T12:15:15;11.48;;;3.67;;
66739;SDS011;53653;52.188;8.602;2022-10-04T12:31:30;8.03;;;3.30;;
66739;SDS011;53653;52.188;8.602;2022-10-04T12:58:32;9.67;;;3.83;;
66739;SDS011;53653;52.188;8.602;2022-10-04T13:01:23;13.18;;;3.63;;
66739;SDS011;53653;52.188;8.602;2022-10-04T13:17:31;9.77;;;3.60;;
66739;SDS011;53653;52.188;8.602;2022-10-04T13:26:07;10.17;;;3.30;;
66739;SDS011;53653;52.188;8.602;2022-10-04T13:31:26;9.27;;;3.55;;
66739;SDS011;53653;52.188;8.602;2022-10-04T13:36:29;11.17;;;3.90;;
66739;SDS011;53653;52.188;8.602;2022-10-04T13:41:46;9.90;;;3.58;;
66739;SDS011;53653;52.188;8.602;2022-10-04T13:44:50;7.63;;;2.90;;
66739;SDS011;53653;52.188;8.602;2022-10-04T13:47:52;10.75;;;3.70;;
66739;SDS011;53653;52.188;8.602;2022-10-04T14:21:39;7.60;;;2.77;;
66739;SDS011;53653;52.188;8.602;2022-10-04T14:27:30;8.77;;;2.95;;
66739;SDS011;53653;52.188;8.602;2022-10-04T14:38:04;9.18;;;3.28;;
66739;SDS011;53653;52.188;8.602;2022-10-04T14:41:06;9.60;;;3.53;;
66739;SDS011;53653;52.188;8.602;2022-10-04T14:49:41;6.97;;;2.90;;
66739;SDS011;53653;52.188;8.602;2022-10-04T15:09:12;8.43;;;2.83;;
66739;SDS011;53653;52.188;8.602;2022-10-04T15:12:16;8.75;;;2.90;;
66739;SDS011;53653;52.188;8.602;2022-10-04T15:17:36;9.50;;;3.07;;
66739;SDS011;53653;52.188;8.602;2022-10-04T15:22:51;8.57;;;2.72;;
66739;SDS011;53653;52.188;8.602;2022-10-04T15:28:00;7.50;;;2.58;;
66739;SDS011;53653;52.188;8.602;2022-10-04T15:38:14;11.50;;;3.28;;
66739;SDS011;53653;52.188;8.602;2022-10-04T15:41:01;9.00;;;3.03;;
66739;SDS011;53653;52.188;8.602;2022-10-04T15:43:43;8.33;;;3.57;;
66739;SDS011;53653;52.188;8.602;2022-10-04T16:00:25;10.70;;;3.90;;
66739;SDS011;53653;52.188;8.602;2022-10-04T16:21:47;10.80;;;4.77;;
66739;SDS011;53653;52.188;8.602;2022-10-04T16:45:35;9.38;;;3.83;;
66739;SDS011;53653;52.188;8.602;2022-10-04T16:48:11;8.93;;;3.72;;
66739;SDS011;53653;52.188;8.602;2022-10-04T16:58:58;9.82;;;4.30;;
66739;SDS011;53653;52.188;8.602;2022-10-04T17:01:29;9.40;;;4.15;;
66739;SDS011;53653;52.188;8.602;2022-10-04T17:28:55;11.02;;;5.78;;
66739;SDS011;53653;52.188;8.602;2022-10-04T17:37:28;14.43;;;6.47;;
66739;SDS011;53653;52.188;8.602;2022-10-04T17:48:12;15.88;;;8.57;;
66739;SDS011;53653;52.188;8.602;2022-10-04T17:51:02;22.60;;;8.37;;
66739;SDS011;53653;52.188;8.602;2022-10-04T17:53:56;17.02;;;8.13;;
66739;SDS011;53653;52.188;8.602;2022-10-04T17:57:06;14.05;;;6.55;;
66739;SDS011;53653;52.188;8.602;2022-10-04T17:59:48;16.27;;;7.75;;
66739;SDS011;53653;52.188;8.602;2022-10-04T18:02:43;16.73;;;7.90;;
66739;SDS011;53653;52.188;8.602;2022-10-04T18:05:14;16.40;;;8.10;;
66739;SDS011;53653;52.188;8.602;2022-10-04T18:08:03;12.52;;;7.22;;
66739;SDS011;53653;52.188;8.602;2022-10-04T18:10:37;12.30;;;5.85;;
66739;SDS011;53653;52.188;8.602;2022-10-04T18:13:15;13.52;;;6.10;;
66739;SDS011;53653;52.188;8.602;2022-10-04T18:15:53;11.43;;;5.13;;
66739;SDS011;53653;52.188;8.602;2022-10-04T18:18:29;12.63;;;4.47;;
66739;SDS011;53653;52.188;8.602;2022-10-04T18:21:03;13.55;;;5.13;;
66739;SDS011;53653;52.188;8.602;2022-10-04T18:23:33;16.10;;;5.35;;
66739;SDS011;53653;52.188;8.602;2022-10-04T18:26:13;10.68;;;5.38;;
66739;SDS011;53653;52.188;8.602;2022-10-04T18:28:48;13.35;;;5.22;;
66739;SDS011;53653;52.188;8.602;2022-10-04T18:34:01;9.60;;;4.63;;
66739;SDS011;53653;52.188;8.602;2022-10-04T18:36:51;9.15;;;4.72;;
66739;SDS011;53653;52.188;8.602;2022-10-04T18:39:42;9.90;;;5.55;;
66739;SDS011;53653;52.188;8.602;2022-10-04T18:42:21;14.32;;;6.32;;
66739;SDS011;53653;52.188;8.602;2022-10-04T18:44:59;13.60;;;6.37;;
66739;SDS011;53653;52.188;8.602;2022-10-04T18:47:35;14.65;;;6.53;;
66739;SDS011;53653;52.188;8.602;2022-10-04T18:50:16;13.63;;;7.45;;
66739;SDS011;53653;52.188;8.602;2022-10-04T18:56:00;22.23;;;10.20;;
66739;SDS011;53653;52.188;8.602;2022-10-04T19:04:28;15.45;;;8.32;;
66739;SDS011;53653;52.188;8.602;2022-10-04T19:06:58;15.35;;;8.02;;
66739;SDS011;53653;52.188;8.602;2022-10-04T19:09:40;16.52;;;8.05;;
66739;SDS011;53653;52.188;8.602;2022-10-04T19:12:21;12.77;;;6.30;;
66739;SDS011;53653;52.188;8.602;2022-10-04T19:15:13;15.32;;;8.88;;
66739;SDS011;53653;52.188;8.602;2022-10-04T19:25:37;15.20;;;7.87;;
66739;SDS011;53653;52.188;8.602;2022-10-04T19:33:48;19.85;;;7.88;;
66739;SDS011;53653;52.188;8.602;2022-10-04T19:52:09;13.53;;;6.07;;
66739;SDS011;53653;52.188;8.602;2022-10-04T19:54:57;14.95;;;5.32;;
66739;SDS011;53653;52.188;8.602;2022-10-04T19:57:34;10.43;;;5.22;;
66739;SDS011;53653;52.188;8.602;2022-10-04T20:00:02;12.00;;;5.50;;
66739;SDS011;53653;52.188;8.602;2022-10-04T20:02:38;14.52;;;5.82;;
66739;SDS011;53653;52.188;8.602;2022-10-04T20:05:15;12.23;;;6.00;;
66739;SDS011;53653;52.188;8.602;2022-10-04T20:07:47;11.65;;;6.15;;
66739;SDS011;53653;52.188;8.602;2022-10-04T20:15:49;11.95;;;4.93;;
66739;SDS011;53653;52.188;8.602;2022-10-04T20:18:49;10.63;;;4.77;;
66739;SDS011;53653;52.188;8.602;2022-10-04T20:21:09;10.25;;;4.90;;
66739;SDS011;53653;52.188;8.602;2022-10-04T20:31:02;11.73;;;4.70;;
66739;SDS011;53653;52.188;8.602;2022-10-04T20:36:01;11.55;;;4.93;;
66739;SDS011;53653;52.188;8.602;2022-10-04T20:46:23;15.98;;;6.07;;
66739;SDS011;53653;52.188;8.602;2022-10-04T20:48:50;12.98;;;5.50;;
66739;SDS011;53653;52.188;8.602;2022-10-04T20:51:17;11.33;;;5.70;;
66739;SDS011;53653;52.188;8.602;2022-10-04T20:53:46;13.48;;;6.22;;
66739;SDS011;53653;52.188;8.602;2022-10-04T20:56:19;13.82;;;6.00;;
66739;SDS011;53653;52.188;8.602;2022-10-04T20:58:51;14.48;;;6.38;;
66739;SDS011;53653;52.188;8.602;2022-10-04T21:04:23;12.60;;;6.50;;
66739;SDS011;53653;52.188;8.602;2022-10-04T21:07:07;16.83;;;6.40;;
66739;SDS011;53653;52.188;8.602;2022-10-04T21:09:38;14.15;;;6.75;;
66739;SDS011;53653;52.188;8.602;2022-10-04T21:12:06;13.52;;;6.57;;
66739;SDS011;53653;52.188;8.602;2022-10-04T21:17:41;15.03;;;6.80;;
66739;SDS011;53653;52.188;8.602;2022-10-04T21:20:14;13.70;;;6.30;;
66739;SDS011;53653;52.188;8.602;2022-10-04T21:23:11;14.13;;;6.30;;
66739;SDS011;53653;52.188;8.602;2022-10-04T21:26:21;15.88;;;6.75;;
66739;SDS011;53653;52.188;8.602;2022-10-04T21:28:51;14.63;;;6.93;;
66739;SDS011;53653;52.188;8.602;2022-10-04T21:31:21;14.90;;;6.70;;
66739;SDS011;53653;52.188;8.602;2022-10-04T21:33:47;14.23;;;6.38;;
66739;SDS011;53653;52.188;8.602;2022-10-04T21:36:12;13.17;;;6.10;;
66739;SDS011;53653;52.188;8.602;2022-10-04T21:38:38;13.38;;;6.30;;
66739;SDS011;53653;52.188;8.602;2022-10-04T21:41:03;13.53;;;6.30;;
66739;SDS011;53653;52.188;8.602;2022-10-04T21:43:29;13.05;;;5.65;;
66739;SDS011;53653;52.188;8.602;2022-10-04T21:45:55;13.57;;;5.63;;
66739;SDS011;53653;52.188;8.602;2022-10-04T21:48:20;13.05;;;5.13;;
66739;SDS011;53653;52.188;8.602;2022-10-04T21:50:47;12.97;;;5.00;;
66739;SDS011;53653;52.188;8.602;2022-10-04T21:53:16;13.30;;;5.43;;
66739;SDS011;53653;52.188;8.602;2022-10-04T21:55:43;12.85;;;5.45;;
66739;SDS011;53653;52.188;8.602;2022-10-04T21:58:08;12.53;;;4.80;;
66739;SDS011;53653;52.188;8.602;2022-10-04T22:00:34;11.20;;;5.00;;
66739;SDS011;53653;52.188;8.602;2022-10-04T22:02:59;12.97;;;5.40;;
66739;SDS011;53653;52.188;8.602;2022-10-04T22:05:25;15.70;;;5.70;;
66739;SDS011;53653;52.188;8.602;2022-10-04T22:07:51;13.03;;;6.93;;
66739;SDS011;53653;52.188;8.602;2022-10-04T22:10:16;11.40;;;4.88;;
66739;SDS011;53653;52.188;8.602;2022-10-04T22:12:42;14.20;;;5.37;;
66739;SDS011;53653;52.188;8.602;2022-10-04T22:15:07;12.33;;;5.53;;
66739;SDS011;53653;52.188;8.602;2022-10-04T22:17:33;13.15;;;5.47;;
66739;SDS011;53653;52.188;8.602;2022-10-04T22:19:59;11.33;;;5.03;;
66739;SDS011;53653;52.188;8.602;2022-10-04T22:22:24;12.88;;;5.68;;
66739;SDS011;53653;52.188;8.602;2022-10-04T22:24:52;11.27;;;4.80;;
66739;SDS011;53653;52.188;8.602;2022-10-04T22:27:18;12.32;;;5.35;;
66739;SDS011;53653;52.188;8.602;2022-10-04T22:29:44;12.47;;;5.23;;
66739;SDS011;53653;52.188;8.602;2022-10-04T22:32:23;11.45;;;5.20;;
66739;SDS011;53653;52.188;8.602;2022-10-04T22:34:51;14.45;;;5.85;;
66739;SDS011;53653;52.188;8.602;2022-10-04T22:37:22;12.20;;;5.43;;
66739;SDS011;53653;52.188;8.602;2022-10-04T22:39:49;15.25;;;5.32;;
66739;SDS011;53653;52.188;8.602;2022-10-04T22:42:16;11.95;;;5.40;;
66739;SDS011;53653;52.188;8.602;2022-10-04T22:44:42;12.18;;;4.93;;
66739;SDS011;53653;52.188;8.602;2022-10-04T22:47:11;11.37;;;5.17;;
66739;SDS011;53653;52.188;8.602;2022-10-04T22:49:40;11.13;;;5.20;;
66739;SDS011;53653;52.188;8.602;2022-10-04T22:52:12;10.20;;;4.88;;
66739;SDS011;53653;52.188;8.602;2022-10-04T22:54:42;13.05;;;5.40;;
66739;SDS011;53653;52.188;8.602;2022-10-04T22:57:10;9.67;;;4.77;;
66739;SDS011;53653;52.188;8.602;2022-10-04T22:59:42;11.73;;;4.93;;
66739;SDS011;53653;52.188;8.602;2022-10-04T23:02:31;14.90;;;4.80;;
66739;SDS011;53653;52.188;8.602;2022-10-04T23:04:57;13.27;;;5.15;;
66739;SDS011;53653;52.188;8.602;2022-10-04T23:07:33;9.77;;;4.63;;
66739;SDS011;53653;52.188;8.602;2022-10-04T23:09:58;11.27;;;4.97;;
66739;SDS011;53653;52.188;8.602;2022-10-04T23:12:24;10.93;;;5.10;;
66739;SDS011;53653;52.188;8.602;2022-10-04T23:14:49;13.67;;;5.20;;
66739;SDS011;53653;52.188;8.602;2022-10-04T23:19:57;11.50;;;4.87;;
66739;SDS011;53653;52.188;8.602;2022-10-04T23:22:28;11.77;;;5.50;;
66739;SDS011;53653;52.188;8.602;2022-10-04T23:24:54;14.10;;;5.47;;
66739;SDS011;53653;52.188;8.602;2022-10-04T23:27:20;10.73;;;5.20;;
66739;SDS011;53653;52.188;8.602;2022-10-04T23:29:46;11.67;;;5.43;;
66739;SDS011;53653;52.188;8.602;2022-10-04T23:32:15;13.50;;;5.43;;
66739;SDS011;53653;52.188;8.602;2022-10-04T23:34:46;10.45;;;5.43;;
66739;SDS011;53653;52.188;8.602;2022-10-04T23:37:23;12.10;;;5.53;;
66739;SDS011;53653;52.188;8.602;2022-10-04T23:39:51;14.10;;;5.97;;
66739;SDS011;53653;52.188;8.602;2022-10-04T23:42:18;12.43;;;5.72;;
66739;SDS011;53653;52.188;8.602;2022-10-04T23:44:45;14.43;;;5.47;;
66739;SDS011;53653;52.188;8.602;2022-10-04T23:47:14;16.27;;;5.90;;
66739;SDS011;53653;52.188;8.602;2022-10-04T23:49:41;12.20;;;5.60;;
66739;SDS011;53653;52.188;8.602;2022-10-04T23:52:13;14.45;;;5.50;;
66739;SDS011;53653;52.188;8.602;2022-10-04T23:54:44;14.15;;;5.55;;
66739;SDS011;53653;52.188;8.602;2022-10-04T23:57:10;12.85;;;5.93;;
66739;SDS011;53653;52.188;8.602;2022-10-04T23:59:41;13.63;;;5.57;;
